sensor_id;sensor_type;location;lat;lon;timestamp;temperature;humidity
2202;DHT22;1107;48.654;9.250;2023-07-08T00:01:59;22.00;1.00
2202;DHT22;1107;48.654;9.250;2023-07-08T00:04:27;22.00;1.00
2202;DHT22;1107;48.654;9.250;2023-07-08T00:06:54;22.00;1.00
2202;DHT22;1107;48.654;9.250;2023-07-08T00:09:21;21.90;1.00
2202;DHT22;1107;48.654;9.250;2023-07-08T00:11:49;21.90;1.00
2202;DHT22;1107;48.654;9.250;2023-07-08T00:14:17;21.80;1.00
2202;DHT22;1107;48.654;9.250;2023-07-08T00:16:43;21.80;1.00
2202;DHT22;1107;48.654;9.250;2023-07-08T00:19:10;21.80;1.00
2202;DHT22;1107;48.654;9.250;2023-07-08T00:21:39;21.80;1.00
2202;DHT22;1107;48.654;9.250;2023-07-08T00:24:06;21.80;1.00
2202;DHT22;1107;48.654;9.250;2023-07-08T00:26:33;21.80;1.00
2202;DHT22;1107;48.654;9.250;2023-07-08T00:29:00;21.80;1.00
2202;DHT22;1107;48.654;9.250;2023-07-08T00:31:26;21.70;1.00
2202;DHT22;1107;48.654;9.250;2023-07-08T00:33:57;21.70;1.00
2202;DHT22;1107;48.654;9.250;2023-07-08T00:36:26;21.70;1.00
2202;DHT22;1107;48.654;9.250;2023-07-08T00:38:55;21.70;1.00
2202;DHT22;1107;48.654;9.250;2023-07-08T00:41:25;21.60;1.00
2202;DHT22;1107;48.654;9.250;2023-07-08T00:43:55;21.50;1.00
2202;DHT22;1107;48.654;9.250;2023-07-08T00:46:42;21.40;1.00
2202;DHT22;1107;48.654;9.250;2023-07-08T00:49:23;21.40;1.00
2202;DHT22;1107;48.654;9.250;2023-07-08T00:51:50;21.30;1.00
2202;DHT22;1107;48.654;9.250;2023-07-08T00:54:19;21.30;1.00
2202;DHT22;1107;48.654;9.250;2023-07-08T00:56:49;21.20;1.00
2202;DHT22;1107;48.654;9.250;2023-07-08T00:59:22;21.20;1.00
2202;DHT22;1107;48.654;9.250;2023-07-08T01:01:49;21.20;1.00
2202;DHT22;1107;48.654;9.250;2023-07-08T01:04:17;21.20;1.00
2202;DHT22;1107;48.654;9.250;2023-07-08T01:06:47;21.20;1.00
2202;DHT22;1107;48.654;9.250;2023-07-08T01:09:25;21.20;1.00
2202;DHT22;1107;48.654;9.250;2023-07-08T01:11:55;21.20;1.00
2202;DHT22;1107;48.654;9.250;2023-07-08T01:14:23;21.20;1.00
2202;DHT22;1107;48.654;9.250;2023-07-08T01:16:52;21.20;1.00
2202;DHT22;1107;48.654;9.250;2023-07-08T01:19:21;21.30;1.00
2202;DHT22;1107;48.654;9.250;2023-07-08T01:22:02;21.20;1.00
2202;DHT22;1107;48.654;9.250;2023-07-08T01:24:30;21.30;1.00
2202;DHT22;1107;48.654;9.250;2023-07-08T01:26:59;21.30;1.00
2202;DHT22;1107;48.654;9.250;2023-07-08T01:29:26;21.30;1.00
2202;DHT22;1107;48.654;9.250;2023-07-08T01:31:55;21.20;1.00
2202;DHT22;1107;48.654;9.250;2023-07-08T01:34:22;21.20;1.00
2202;DHT22;1107;48.654;9.250;2023-07-08T01:36:52;21.20;1.00
2202;DHT22;1107;48.654;9.250;2023-07-08T01:39:24;21.10;1.00
2202;DHT22;1107;48.654;9.250;2023-07-08T01:41:51;21.10;1.00
2202;DHT22;1107;48.654;9.250;2023-07-08T01:44:21;21.10;1.00
2202;DHT22;1107;48.654;9.250;2023-07-08T01:46:49;21.10;1.00
2202;DHT22;1107;48.654;9.250;2023-07-08T01:49:17;21.20;1.00
2202;DHT22;1107;48.654;9.250;2023-07-08T01:51:46;21.20;1.00
2202;DHT22;1107;48.654;9.250;2023-07-08T01:54:14;21.20;1.00
2202;DHT22;1107;48.654;9.250;2023-07-08T01:56:42;21.20;1.00
2202;DHT22;1107;48.654;9.250;2023-07-08T01:59:09;21.20;1.00
2202;DHT22;1107;48.654;9.250;2023-07-08T02:01:36;21.10;1.00
2202;DHT22;1107;48.654;9.250;2023-07-08T02:04:03;21.20;1.00
2202;DHT22;1107;48.654;9.250;2023-07-08T02:06:30;21.20;1.00
2202;DHT22;1107;48.654;9.250;2023-07-08T02:08:57;21.20;1.00
2202;DHT22;1107;48.654;9.250;2023-07-08T02:11:24;21.10;1.00
2202;DHT22;1107;48.654;9.250;2023-07-08T02:13:53;21.20;1.00
2202;DHT22;1107;48.654;9.250;2023-07-08T02:16:20;21.10;1.00
2202;DHT22;1107;48.654;9.250;2023-07-08T02:18:47;21.10;1.00
2202;DHT22;1107;48.654;9.250;2023-07-08T02:21:14;21.10;1.00
2202;DHT22;1107;48.654;9.250;2023-07-08T02:23:44;21.10;1.00
2202;DHT22;1107;48.654;9.250;2023-07-08T02:26:11;21.10;1.00
2202;DHT22;1107;48.654;9.250;2023-07-08T02:28:38;20.80;1.00
2202;DHT22;1107;48.654;9.250;2023-07-08T02:31:06;20.70;1.00
2202;DHT22;1107;48.654;9.250;2023-07-08T02:33:33;20.60;1.00
2202;DHT22;1107;48.654;9.250;2023-07-08T02:36:00;20.50;1.00
2202;DHT22;1107;48.654;9.250;2023-07-08T02:38:27;20.50;1.00
2202;DHT22;1107;48.654;9.250;2023-07-08T02:40:55;20.50;1.00
2202;DHT22;1107;48.654;9.250;2023-07-08T02:43:22;20.60;1.00
2202;DHT22;1107;48.654;9.250;2023-07-08T02:45:49;20.50;1.00
2202;DHT22;1107;48.654;9.250;2023-07-08T02:48:19;20.50;1.00
2202;DHT22;1107;48.654;9.250;2023-07-08T02:50:46;20.40;1.00
2202;DHT22;1107;48.654;9.250;2023-07-08T02:53:13;20.30;1.00
2202;DHT22;1107;48.654;9.250;2023-07-08T02:55:40;20.40;1.00
2202;DHT22;1107;48.654;9.250;2023-07-08T02:58:08;20.30;1.00
2202;DHT22;1107;48.654;9.250;2023-07-08T03:00:35;20.30;1.00
2202;DHT22;1107;48.654;9.250;2023-07-08T03:03:03;20.30;1.00
2202;DHT22;1107;48.654;9.250;2023-07-08T03:05:31;20.40;1.00
2202;DHT22;1107;48.654;9.250;2023-07-08T03:07:58;20.30;1.00
2202;DHT22;1107;48.654;9.250;2023-07-08T03:10:25;20.40;1.00
2202;DHT22;1107;48.654;9.250;2023-07-08T03:12:52;20.50;1.00
2202;DHT22;1107;48.654;9.250;2023-07-08T03:15:18;20.50;1.00
2202;DHT22;1107;48.654;9.250;2023-07-08T03:17:45;20.50;1.00
2202;DHT22;1107;48.654;9.250;2023-07-08T03:20:12;20.60;1.00
2202;DHT22;1107;48.654;9.250;2023-07-08T03:22:40;20.60;1.00
2202;DHT22;1107;48.654;9.250;2023-07-08T03:25:07;20.60;1.00
2202;DHT22;1107;48.654;9.250;2023-07-08T03:27:34;20.60;1.00
2202;DHT22;1107;48.654;9.250;2023-07-08T03:30:01;20.60;1.00
2202;DHT22;1107;48.654;9.250;2023-07-08T03:32:29;20.60;1.00
2202;DHT22;1107;48.654;9.250;2023-07-08T03:34:56;20.60;1.00
2202;DHT22;1107;48.654;9.250;2023-07-08T03:37:22;20.60;1.00
2202;DHT22;1107;48.654;9.250;2023-07-08T03:39:51;20.50;1.00
2202;DHT22;1107;48.654;9.250;2023-07-08T03:42:18;20.50;1.00
2202;DHT22;1107;48.654;9.250;2023-07-08T03:44:44;20.50;1.00
2202;DHT22;1107;48.654;9.250;2023-07-08T03:47:11;20.50;1.00
2202;DHT22;1107;48.654;9.250;2023-07-08T03:49:38;20.50;1.00
2202;DHT22;1107;48.654;9.250;2023-07-08T03:52:07;20.50;1.00
2202;DHT22;1107;48.654;9.250;2023-07-08T03:54:35;20.50;1.00
2202;DHT22;1107;48.654;9.250;2023-07-08T03:57:04;20.50;1.00
2202;DHT22;1107;48.654;9.250;2023-07-08T03:59:30;20.50;1.00
2202;DHT22;1107;48.654;9.250;2023-07-08T04:01:57;20.60;1.00
2202;DHT22;1107;48.654;9.250;2023-07-08T04:04:24;20.70;1.00
2202;DHT22;1107;48.654;9.250;2023-07-08T04:06:51;20.70;1.00
2202;DHT22;1107;48.654;9.250;2023-07-08T04:09:18;20.90;1.00
2202;DHT22;1107;48.654;9.250;2023-07-08T04:11:45;21.00;1.00
2202;DHT22;1107;48.654;9.250;2023-07-08T04:14:13;21.10;1.00
2202;DHT22;1107;48.654;9.250;2023-07-08T04:16:47;21.20;1.00
2202;DHT22;1107;48.654;9.250;2023-07-08T04:19:14;21.30;1.00
2202;DHT22;1107;48.654;9.250;2023-07-08T04:21:42;21.50;1.00
2202;DHT22;1107;48.654;9.250;2023-07-08T04:24:11;21.50;1.00
2202;DHT22;1107;48.654;9.250;2023-07-08T04:26:38;21.50;1.00
2202;DHT22;1107;48.654;9.250;2023-07-08T04:29:09;21.50;1.00
2202;DHT22;1107;48.654;9.250;2023-07-08T04:31:38;21.50;1.00
2202;DHT22;1107;48.654;9.250;2023-07-08T04:34:05;21.40;1.00
2202;DHT22;1107;48.654;9.250;2023-07-08T04:36:33;21.50;1.00
2202;DHT22;1107;48.654;9.250;2023-07-08T04:39:00;21.80;1.00
2202;DHT22;1107;48.654;9.250;2023-07-08T04:41:28;21.90;1.00
2202;DHT22;1107;48.654;9.250;2023-07-08T04:43:54;22.10;1.00
2202;DHT22;1107;48.654;9.250;2023-07-08T04:46:29;22.30;1.00
2202;DHT22;1107;48.654;9.250;2023-07-08T04:48:58;22.30;1.00
2202;DHT22;1107;48.654;9.250;2023-07-08T04:51:26;22.30;1.00
2202;DHT22;1107;48.654;9.250;2023-07-08T04:53:53;22.30;1.00
2202;DHT22;1107;48.654;9.250;2023-07-08T04:56:20;22.50;1.00
2202;DHT22;1107;48.654;9.250;2023-07-08T04:58:47;22.70;1.00
2202;DHT22;1107;48.654;9.250;2023-07-08T05:01:14;22.70;1.00
2202;DHT22;1107;48.654;9.250;2023-07-08T05:03:41;22.90;1.00
2202;DHT22;1107;48.654;9.250;2023-07-08T05:06:09;23.00;1.00
2202;DHT22;1107;48.654;9.250;2023-07-08T05:08:36;23.10;1.00
2202;DHT22;1107;48.654;9.250;2023-07-08T05:11:04;23.00;1.00
2202;DHT22;1107;48.654;9.250;2023-07-08T05:13:31;23.10;1.00
2202;DHT22;1107;48.654;9.250;2023-07-08T05:15:57;23.10;1.00
2202;DHT22;1107;48.654;9.250;2023-07-08T05:18:24;23.00;1.00
2202;DHT22;1107;48.654;9.250;2023-07-08T05:20:51;22.90;1.00
2202;DHT22;1107;48.654;9.250;2023-07-08T05:23:21;22.60;1.00
2202;DHT22;1107;48.654;9.250;2023-07-08T05:25:50;22.60;1.00
2202;DHT22;1107;48.654;9.250;2023-07-08T05:28:17;22.80;1.00
2202;DHT22;1107;48.654;9.250;2023-07-08T05:30:44;22.70;1.00
2202;DHT22;1107;48.654;9.250;2023-07-08T05:33:11;22.70;1.00
2202;DHT22;1107;48.654;9.250;2023-07-08T05:35:38;22.70;1.00
2202;DHT22;1107;48.654;9.250;2023-07-08T05:38:05;22.70;1.00
2202;DHT22;1107;48.654;9.250;2023-07-08T05:40:33;22.80;1.00
2202;DHT22;1107;48.654;9.250;2023-07-08T05:43:00;22.80;1.00
2202;DHT22;1107;48.654;9.250;2023-07-08T05:45:27;23.00;1.00
2202;DHT22;1107;48.654;9.250;2023-07-08T05:47:54;22.90;1.00
2202;DHT22;1107;48.654;9.250;2023-07-08T05:50:21;22.80;1.00
2202;DHT22;1107;48.654;9.250;2023-07-08T05:52:48;22.70;1.00
2202;DHT22;1107;48.654;9.250;2023-07-08T05:55:16;22.50;1.00
2202;DHT22;1107;48.654;9.250;2023-07-08T05:57:44;22.60;1.00
2202;DHT22;1107;48.654;9.250;2023-07-08T06:00:13;22.90;1.00
2202;DHT22;1107;48.654;9.250;2023-07-08T06:02:40;23.00;1.00
2202;DHT22;1107;48.654;9.250;2023-07-08T06:05:07;23.10;1.00
2202;DHT22;1107;48.654;9.250;2023-07-08T06:07:35;23.10;1.00
2202;DHT22;1107;48.654;9.250;2023-07-08T06:10:02;23.30;1.00
2202;DHT22;1107;48.654;9.250;2023-07-08T06:12:30;23.20;1.00
2202;DHT22;1107;48.654;9.250;2023-07-08T06:14:58;23.20;1.00
2202;DHT22;1107;48.654;9.250;2023-07-08T06:17:25;23.10;1.00
2202;DHT22;1107;48.654;9.250;2023-07-08T06:19:52;23.20;1.00
2202;DHT22;1107;48.654;9.250;2023-07-08T06:22:19;23.20;1.00
2202;DHT22;1107;48.654;9.250;2023-07-08T06:24:46;23.20;1.00
2202;DHT22;1107;48.654;9.250;2023-07-08T06:27:13;23.00;1.00
2202;DHT22;1107;48.654;9.250;2023-07-08T06:29:40;22.80;1.00
2202;DHT22;1107;48.654;9.250;2023-07-08T06:32:09;22.60;1.00
2202;DHT22;1107;48.654;9.250;2023-07-08T06:34:36;22.60;1.00
2202;DHT22;1107;48.654;9.250;2023-07-08T06:37:04;22.60;1.00
2202;DHT22;1107;48.654;9.250;2023-07-08T06:39:31;22.50;1.00
2202;DHT22;1107;48.654;9.250;2023-07-08T06:41:57;22.70;1.00
2202;DHT22;1107;48.654;9.250;2023-07-08T06:44:24;22.80;1.00
2202;DHT22;1107;48.654;9.250;2023-07-08T06:46:52;22.80;9.50
2202;DHT22;1107;48.654;9.250;2023-07-08T06:49:20;22.70;1.00
2202;DHT22;1107;48.654;9.250;2023-07-08T06:51:47;22.50;1.80
2202;DHT22;1107;48.654;9.250;2023-07-08T06:54:14;22.40;8.00
2202;DHT22;1107;48.654;9.250;2023-07-08T06:56:41;22.40;11.50
2202;DHT22;1107;48.654;9.250;2023-07-08T06:59:08;22.50;15.00
2202;DHT22;1107;48.654;9.250;2023-07-08T07:01:35;22.50;19.10
2202;DHT22;1107;48.654;9.250;2023-07-08T07:04:03;22.60;20.30
2202;DHT22;1107;48.654;9.250;2023-07-08T07:06:32;22.70;20.20
2202;DHT22;1107;48.654;9.250;2023-07-08T07:08:59;22.70;20.90
2202;DHT22;1107;48.654;9.250;2023-07-08T07:11:26;22.80;22.20
2202;DHT22;1107;48.654;9.250;2023-07-08T07:13:53;23.00;27.70
2202;DHT22;1107;48.654;9.250;2023-07-08T07:16:22;23.30;29.70
2202;DHT22;1107;48.654;9.250;2023-07-08T07:18:50;23.50;25.20
2202;DHT22;1107;48.654;9.250;2023-07-08T07:21:17;23.60;21.10
2202;DHT22;1107;48.654;9.250;2023-07-08T07:23:45;23.70;18.70
2202;DHT22;1107;48.654;9.250;2023-07-08T07:26:12;24.00;18.20
2202;DHT22;1107;48.654;9.250;2023-07-08T07:28:39;24.10;15.50
2202;DHT22;1107;48.654;9.250;2023-07-08T07:31:06;24.10;14.30
2202;DHT22;1107;48.654;9.250;2023-07-08T07:33:36;24.20;13.60
2202;DHT22;1107;48.654;9.250;2023-07-08T07:36:04;24.30;16.20
2202;DHT22;1107;48.654;9.250;2023-07-08T07:38:33;24.30;13.60
2202;DHT22;1107;48.654;9.250;2023-07-08T07:41:01;24.30;11.30
2202;DHT22;1107;48.654;9.250;2023-07-08T07:43:32;24.30;11.50
2202;DHT22;1107;48.654;9.250;2023-07-08T07:45:59;24.40;11.90
2202;DHT22;1107;48.654;9.250;2023-07-08T07:48:26;24.40;12.10
2202;DHT22;1107;48.654;9.250;2023-07-08T07:50:53;24.40;11.40
2202;DHT22;1107;48.654;9.250;2023-07-08T07:53:20;24.30;9.70
2202;DHT22;1107;48.654;9.250;2023-07-08T07:55:47;24.20;10.20
2202;DHT22;1107;48.654;9.250;2023-07-08T07:58:15;24.20;10.60
2202;DHT22;1107;48.654;9.250;2023-07-08T08:00:42;24.20;11.40
2202;DHT22;1107;48.654;9.250;2023-07-08T08:03:09;24.20;11.40
2202;DHT22;1107;48.654;9.250;2023-07-08T08:05:36;24.20;13.10
2202;DHT22;1107;48.654;9.250;2023-07-08T08:08:03;24.20;15.60
2202;DHT22;1107;48.654;9.250;2023-07-08T08:10:30;24.00;17.10
2202;DHT22;1107;48.654;9.250;2023-07-08T08:12:58;24.00;19.10
2202;DHT22;1107;48.654;9.250;2023-07-08T08:15:26;24.10;19.40
2202;DHT22;1107;48.654;9.250;2023-07-08T08:17:53;24.20;20.00
2202;DHT22;1107;48.654;9.250;2023-07-08T08:20:22;24.30;35.40
2202;DHT22;1107;48.654;9.250;2023-07-08T08:22:49;24.40;23.00
2202;DHT22;1107;48.654;9.250;2023-07-08T08:25:17;24.60;22.60
2202;DHT22;1107;48.654;9.250;2023-07-08T08:27:45;24.90;22.70
2202;DHT22;1107;48.654;9.250;2023-07-08T08:30:12;25.30;20.70
2202;DHT22;1107;48.654;9.250;2023-07-08T08:32:40;26.00;19.20
2202;DHT22;1107;48.654;9.250;2023-07-08T08:35:08;26.90;20.70
2202;DHT22;1107;48.654;9.250;2023-07-08T08:37:35;27.40;20.40
2202;DHT22;1107;48.654;9.250;2023-07-08T08:40:02;27.40;15.90
2202;DHT22;1107;48.654;9.250;2023-07-08T08:42:33;27.10;12.30
2202;DHT22;1107;48.654;9.250;2023-07-08T08:45:02;27.40;12.40
2202;DHT22;1107;48.654;9.250;2023-07-08T08:47:31;28.20;15.70
2202;DHT22;1107;48.654;9.250;2023-07-08T08:50:08;28.70;12.20
2202;DHT22;1107;48.654;9.250;2023-07-08T08:52:41;29.50;13.60
2202;DHT22;1107;48.654;9.250;2023-07-08T08:55:11;29.30;9.20
2202;DHT22;1107;48.654;9.250;2023-07-08T08:57:43;29.30;6.80
2202;DHT22;1107;48.654;9.250;2023-07-08T09:00:16;29.80;8.50
2202;DHT22;1107;48.654;9.250;2023-07-08T09:02:53;30.00;6.40
2202;DHT22;1107;48.654;9.250;2023-07-08T09:05:25;29.70;5.40
2202;DHT22;1107;48.654;9.250;2023-07-08T09:08:01;29.50;2.40
2202;DHT22;1107;48.654;9.250;2023-07-08T09:10:39;28.90;1.00
2202;DHT22;1107;48.654;9.250;2023-07-08T09:13:12;29.40;4.50
2202;DHT22;1107;48.654;9.250;2023-07-08T09:15:42;29.30;3.40
2202;DHT22;1107;48.654;9.250;2023-07-08T09:18:17;29.20;2.70
2202;DHT22;1107;48.654;9.250;2023-07-08T09:20:47;28.70;1.00
2202;DHT22;1107;48.654;9.250;2023-07-08T09:23:18;28.30;1.00
2202;DHT22;1107;48.654;9.250;2023-07-08T09:25:52;28.10;1.00
2202;DHT22;1107;48.654;9.250;2023-07-08T09:28:20;27.70;1.00
2202;DHT22;1107;48.654;9.250;2023-07-08T09:30:48;27.60;1.00
2202;DHT22;1107;48.654;9.250;2023-07-08T09:33:19;27.60;1.00
2202;DHT22;1107;48.654;9.250;2023-07-08T09:35:48;27.70;1.00
2202;DHT22;1107;48.654;9.250;2023-07-08T09:38:17;27.20;1.00
2202;DHT22;1107;48.654;9.250;2023-07-08T09:40:47;27.60;1.00
2202;DHT22;1107;48.654;9.250;2023-07-08T09:43:24;28.40;1.00
2202;DHT22;1107;48.654;9.250;2023-07-08T09:45:51;29.90;4.30
2202;DHT22;1107;48.654;9.250;2023-07-08T09:48:25;29.90;2.40
2202;DHT22;1107;48.654;9.250;2023-07-08T09:50:56;29.70;1.00
2202;DHT22;1107;48.654;9.250;2023-07-08T09:53:24;29.00;1.00
2202;DHT22;1107;48.654;9.250;2023-07-08T09:55:53;28.50;1.00
2202;DHT22;1107;48.654;9.250;2023-07-08T09:58:24;28.30;1.00
2202;DHT22;1107;48.654;9.250;2023-07-08T10:00:55;27.90;1.00
2202;DHT22;1107;48.654;9.250;2023-07-08T10:03:25;27.70;1.00
2202;DHT22;1107;48.654;9.250;2023-07-08T10:05:56;27.80;1.00
2202;DHT22;1107;48.654;9.250;2023-07-08T10:08:30;27.80;1.00
2202;DHT22;1107;48.654;9.250;2023-07-08T10:11:22;27.90;1.00
2202;DHT22;1107;48.654;9.250;2023-07-08T10:13:53;28.50;1.00
2202;DHT22;1107;48.654;9.250;2023-07-08T10:16:23;28.90;1.00
2202;DHT22;1107;48.654;9.250;2023-07-08T10:18:51;29.60;1.00
2202;DHT22;1107;48.654;9.250;2023-07-08T10:21:29;29.90;1.00
2202;DHT22;1107;48.654;9.250;2023-07-08T10:24:07;29.90;1.00
2202;DHT22;1107;48.654;9.250;2023-07-08T10:26:40;30.30;1.00
2202;DHT22;1107;48.654;9.250;2023-07-08T10:29:15;30.40;1.00
2202;DHT22;1107;48.654;9.250;2023-07-08T10:31:50;30.40;1.00
2202;DHT22;1107;48.654;9.250;2023-07-08T10:34:26;30.10;1.00
2202;DHT22;1107;48.654;9.250;2023-07-08T10:37:04;30.30;1.00
2202;DHT22;1107;48.654;9.250;2023-07-08T10:39:57;30.40;1.00
2202;DHT22;1107;48.654;9.250;2023-07-08T10:42:37;30.80;1.00
2202;DHT22;1107;48.654;9.250;2023-07-08T10:45:09;31.00;1.00
2202;DHT22;1107;48.654;9.250;2023-07-08T10:47:51;31.00;1.00
2202;DHT22;1107;48.654;9.250;2023-07-08T10:50:32;31.80;1.00
2202;DHT22;1107;48.654;9.250;2023-07-08T10:53:17;31.10;1.00
2202;DHT22;1107;48.654;9.250;2023-07-08T10:55:51;31.50;1.00
2202;DHT22;1107;48.654;9.250;2023-07-08T10:58:36;31.60;1.00
2202;DHT22;1107;48.654;9.250;2023-07-08T11:01:13;30.80;1.00
2202;DHT22;1107;48.654;9.250;2023-07-08T11:04:01;30.70;1.00
2202;DHT22;1107;48.654;9.250;2023-07-08T11:06:43;30.60;1.00
2202;DHT22;1107;48.654;9.250;2023-07-08T11:09:16;30.50;1.00
2202;DHT22;1107;48.654;9.250;2023-07-08T11:11:49;30.40;1.00
2202;DHT22;1107;48.654;9.250;2023-07-08T11:14:23;30.70;1.00
2202;DHT22;1107;48.654;9.250;2023-07-08T11:16:57;31.10;1.00
2202;DHT22;1107;48.654;9.250;2023-07-08T11:19:32;31.30;1.00
2202;DHT22;1107;48.654;9.250;2023-07-08T11:22:03;31.30;1.00
2202;DHT22;1107;48.654;9.250;2023-07-08T11:24:40;31.40;1.00
2202;DHT22;1107;48.654;9.250;2023-07-08T11:27:13;31.40;1.00
2202;DHT22;1107;48.654;9.250;2023-07-08T11:29:46;31.40;1.00
2202;DHT22;1107;48.654;9.250;2023-07-08T11:32:17;31.60;1.00
2202;DHT22;1107;48.654;9.250;2023-07-08T11:34:46;31.80;1.00
2202;DHT22;1107;48.654;9.250;2023-07-08T11:37:15;31.70;1.00
2202;DHT22;1107;48.654;9.250;2023-07-08T11:39:46;32.00;1.00
2202;DHT22;1107;48.654;9.250;2023-07-08T11:42:19;32.10;1.00
2202;DHT22;1107;48.654;9.250;2023-07-08T11:44:50;32.10;1.00
2202;DHT22;1107;48.654;9.250;2023-07-08T11:47:21;32.20;1.00
2202;DHT22;1107;48.654;9.250;2023-07-08T11:49:51;32.40;1.00
2202;DHT22;1107;48.654;9.250;2023-07-08T11:52:20;32.40;1.00
2202;DHT22;1107;48.654;9.250;2023-07-08T11:54:56;32.50;1.00
2202;DHT22;1107;48.654;9.250;2023-07-08T11:57:30;32.70;1.00
2202;DHT22;1107;48.654;9.250;2023-07-08T12:00:16;32.90;1.00
2202;DHT22;1107;48.654;9.250;2023-07-08T12:02:50;32.60;1.00
2202;DHT22;1107;48.654;9.250;2023-07-08T12:05:29;32.40;1.00
2202;DHT22;1107;48.654;9.250;2023-07-08T12:07:57;32.20;1.00
2202;DHT22;1107;48.654;9.250;2023-07-08T12:10:32;32.10;1.00
2202;DHT22;1107;48.654;9.250;2023-07-08T12:13:00;32.70;1.00
2202;DHT22;1107;48.654;9.250;2023-07-08T12:15:28;33.10;1.00
2202;DHT22;1107;48.654;9.250;2023-07-08T12:17:56;33.30;1.00
2202;DHT22;1107;48.654;9.250;2023-07-08T12:20:26;33.40;1.00
2202;DHT22;1107;48.654;9.250;2023-07-08T12:22:53;33.40;1.00
2202;DHT22;1107;48.654;9.250;2023-07-08T12:25:32;33.00;1.00
2202;DHT22;1107;48.654;9.250;2023-07-08T12:28:01;32.80;1.00
2202;DHT22;1107;48.654;9.250;2023-07-08T12:30:29;32.70;1.00
2202;DHT22;1107;48.654;9.250;2023-07-08T12:32:57;32.60;1.00
2202;DHT22;1107;48.654;9.250;2023-07-08T12:35:26;33.00;1.00
2202;DHT22;1107;48.654;9.250;2023-07-08T12:37:53;32.60;1.00
2202;DHT22;1107;48.654;9.250;2023-07-08T12:40:22;33.00;1.00
2202;DHT22;1107;48.654;9.250;2023-07-08T12:42:51;32.20;1.00
2202;DHT22;1107;48.654;9.250;2023-07-08T12:45:19;32.20;1.00
2202;DHT22;1107;48.654;9.250;2023-07-08T12:47:46;32.10;1.00
2202;DHT22;1107;48.654;9.250;2023-07-08T12:50:14;32.50;1.00
2202;DHT22;1107;48.654;9.250;2023-07-08T12:52:42;32.80;1.00
2202;DHT22;1107;48.654;9.250;2023-07-08T12:55:09;32.60;1.00
2202;DHT22;1107;48.654;9.250;2023-07-08T12:57:36;32.80;1.00
2202;DHT22;1107;48.654;9.250;2023-07-08T13:00:12;33.20;1.00
2202;DHT22;1107;48.654;9.250;2023-07-08T13:02:39;32.70;1.00
2202;DHT22;1107;48.654;9.250;2023-07-08T13:05:07;33.00;1.00
2202;DHT22;1107;48.654;9.250;2023-07-08T13:07:37;32.50;1.00
2202;DHT22;1107;48.654;9.250;2023-07-08T13:10:06;32.50;1.00
2202;DHT22;1107;48.654;9.250;2023-07-08T13:12:35;32.30;1.00
2202;DHT22;1107;48.654;9.250;2023-07-08T13:15:10;32.50;1.00
2202;DHT22;1107;48.654;9.250;2023-07-08T13:17:39;32.80;1.00
2202;DHT22;1107;48.654;9.250;2023-07-08T13:20:10;33.00;1.00
2202;DHT22;1107;48.654;9.250;2023-07-08T13:22:40;33.30;1.00
2202;DHT22;1107;48.654;9.250;2023-07-08T13:25:14;33.60;1.00
2202;DHT22;1107;48.654;9.250;2023-07-08T13:27:42;33.50;1.00
2202;DHT22;1107;48.654;9.250;2023-07-08T13:30:24;33.20;1.00
2202;DHT22;1107;48.654;9.250;2023-07-08T13:32:52;33.10;1.00
2202;DHT22;1107;48.654;9.250;2023-07-08T13:35:25;32.80;1.00
2202;DHT22;1107;48.654;9.250;2023-07-08T13:37:55;33.00;1.00
2202;DHT22;1107;48.654;9.250;2023-07-08T13:40:22;33.30;1.00
2202;DHT22;1107;48.654;9.250;2023-07-08T13:42:50;33.10;1.00
2202;DHT22;1107;48.654;9.250;2023-07-08T13:45:24;32.60;1.00
2202;DHT22;1107;48.654;9.250;2023-07-08T13:47:59;32.60;1.00
2202;DHT22;1107;48.654;9.250;2023-07-08T13:50:29;32.90;1.00
2202;DHT22;1107;48.654;9.250;2023-07-08T13:52:58;32.50;1.00
2202;DHT22;1107;48.654;9.250;2023-07-08T13:55:26;32.00;1.00
2202;DHT22;1107;48.654;9.250;2023-07-08T13:57:59;32.30;1.00
2202;DHT22;1107;48.654;9.250;2023-07-08T14:00:29;32.70;1.00
2202;DHT22;1107;48.654;9.250;2023-07-08T14:02:57;33.30;1.00
2202;DHT22;1107;48.654;9.250;2023-07-08T14:05:24;33.70;1.00
2202;DHT22;1107;48.654;9.250;2023-07-08T14:07:51;33.30;1.00
2202;DHT22;1107;48.654;9.250;2023-07-08T14:10:17;33.50;1.00
2202;DHT22;1107;48.654;9.250;2023-07-08T14:12:44;33.70;1.00
2202;DHT22;1107;48.654;9.250;2023-07-08T14:15:11;33.60;1.00
2202;DHT22;1107;48.654;9.250;2023-07-08T14:17:40;32.80;1.00
2202;DHT22;1107;48.654;9.250;2023-07-08T14:20:15;32.40;1.00
2202;DHT22;1107;48.654;9.250;2023-07-08T14:22:42;32.90;1.00
2202;DHT22;1107;48.654;9.250;2023-07-08T14:25:10;33.00;1.00
2202;DHT22;1107;48.654;9.250;2023-07-08T14:27:37;33.10;1.00
2202;DHT22;1107;48.654;9.250;2023-07-08T14:30:05;32.90;1.00
2202;DHT22;1107;48.654;9.250;2023-07-08T14:32:35;32.60;1.00
2202;DHT22;1107;48.654;9.250;2023-07-08T14:35:14;32.30;1.00
2202;DHT22;1107;48.654;9.250;2023-07-08T14:37:42;32.00;1.00
2202;DHT22;1107;48.654;9.250;2023-07-08T14:40:22;32.20;1.00
2202;DHT22;1107;48.654;9.250;2023-07-08T14:42:58;32.00;1.00
2202;DHT22;1107;48.654;9.250;2023-07-08T14:45:27;32.10;1.00
2202;DHT22;1107;48.654;9.250;2023-07-08T14:47:55;32.20;1.00
2202;DHT22;1107;48.654;9.250;2023-07-08T14:50:23;31.80;1.00
2202;DHT22;1107;48.654;9.250;2023-07-08T14:52:55;32.00;1.00
2202;DHT22;1107;48.654;9.250;2023-07-08T14:55:22;32.20;1.00
2202;DHT22;1107;48.654;9.250;2023-07-08T14:57:49;32.30;1.00
2202;DHT22;1107;48.654;9.250;2023-07-08T15:00:18;32.20;1.00
2202;DHT22;1107;48.654;9.250;2023-07-08T15:02:47;32.40;1.00
2202;DHT22;1107;48.654;9.250;2023-07-08T15:05:16;32.20;1.00
2202;DHT22;1107;48.654;9.250;2023-07-08T15:07:48;31.90;1.00
2202;DHT22;1107;48.654;9.250;2023-07-08T15:10:16;32.10;1.00
2202;DHT22;1107;48.654;9.250;2023-07-08T15:12:43;32.00;1.00
2202;DHT22;1107;48.654;9.250;2023-07-08T15:15:15;31.70;1.00
2202;DHT22;1107;48.654;9.250;2023-07-08T15:17:43;31.60;1.00
2202;DHT22;1107;48.654;9.250;2023-07-08T15:20:12;31.70;1.00
2202;DHT22;1107;48.654;9.250;2023-07-08T15:22:41;31.40;1.00
2202;DHT22;1107;48.654;9.250;2023-07-08T15:25:11;31.40;1.00
2202;DHT22;1107;48.654;9.250;2023-07-08T15:27:39;31.60;1.00
2202;DHT22;1107;48.654;9.250;2023-07-08T15:30:15;31.80;1.00
2202;DHT22;1107;48.654;9.250;2023-07-08T15:32:44;31.80;1.00
2202;DHT22;1107;48.654;9.250;2023-07-08T15:35:16;31.60;1.00
2202;DHT22;1107;48.654;9.250;2023-07-08T15:37:44;31.40;1.00
2202;DHT22;1107;48.654;9.250;2023-07-08T15:40:14;31.10;1.00
2202;DHT22;1107;48.654;9.250;2023-07-08T15:42:44;31.00;1.00
2202;DHT22;1107;48.654;9.250;2023-07-08T15:45:23;30.80;1.00
2202;DHT22;1107;48.654;9.250;2023-07-08T15:47:50;30.80;1.00
2202;DHT22;1107;48.654;9.250;2023-07-08T15:50:20;30.80;1.00
2202;DHT22;1107;48.654;9.250;2023-07-08T15:52:47;31.00;1.00
2202;DHT22;1107;48.654;9.250;2023-07-08T15:55:20;31.20;1.00
2202;DHT22;1107;48.654;9.250;2023-07-08T15:57:57;31.30;1.00
2202;DHT22;1107;48.654;9.250;2023-07-08T16:00:32;31.40;1.00
2202;DHT22;1107;48.654;9.250;2023-07-08T16:03:01;31.40;1.00
2202;DHT22;1107;48.654;9.250;2023-07-08T16:05:31;31.40;1.00
2202;DHT22;1107;48.654;9.250;2023-07-08T16:07:59;31.40;1.00
2202;DHT22;1107;48.654;9.250;2023-07-08T16:10:27;31.50;1.00
2202;DHT22;1107;48.654;9.250;2023-07-08T16:12:55;31.50;1.00
2202;DHT22;1107;48.654;9.250;2023-07-08T16:15:28;31.60;1.00
2202;DHT22;1107;48.654;9.250;2023-07-08T16:17:55;31.60;1.00
2202;DHT22;1107;48.654;9.250;2023-07-08T16:20:24;31.40;1.00
2202;DHT22;1107;48.654;9.250;2023-07-08T16:22:52;31.10;1.00
2202;DHT22;1107;48.654;9.250;2023-07-08T16:25:31;31.00;1.00
2202;DHT22;1107;48.654;9.250;2023-07-08T16:27:59;30.80;1.00
2202;DHT22;1107;48.654;9.250;2023-07-08T16:30:27;30.60;1.00
2202;DHT22;1107;48.654;9.250;2023-07-08T16:32:55;30.50;1.00